EGHP weather

Popham Airfield
Basingstoke, England, United Kingdom

Public forecast

Using degrees Celsius for public forecast. Weather courtesy of forecast.io.

METAR (pilot weather report)

Closest report is RAF Odiham, 11.2 nm (20.8 km) ENE. Retrieved 2019/03/25 23:50 UTC (45 minutes ago):

EGVO 252350Z 28004KT CAVOK 04/00 Q1035 BLU

TAF (pilot weather forecast)

Closest forecast is RAF Odiham, 11.2 nm (20.8 km) ENE. Retrieved 2019/03/25 21:06 UTC (3 hours ago):

TAF TAF EGVO 252304Z 2521/2609 CNL